sensor_id;sensor_type;location;lat;lon;timestamp;temperature;humidity
22795;DHT22;11564;50.920;11.612;2023-03-14T00:00:27;10.00;99.90
22795;DHT22;11564;50.920;11.612;2023-03-14T00:02:53;10.00;99.90
22795;DHT22;11564;50.920;11.612;2023-03-14T00:05:19;10.00;99.90
22795;DHT22;11564;50.920;11.612;2023-03-14T00:07:45;10.00;99.90
22795;DHT22;11564;50.920;11.612;2023-03-14T00:10:13;10.00;99.90
22795;DHT22;11564;50.920;11.612;2023-03-14T00:12:40;10.00;99.90
22795;DHT22;11564;50.920;11.612;2023-03-14T00:15:06;10.00;99.90
22795;DHT22;11564;50.920;11.612;2023-03-14T00:17:34;9.90;99.90
22795;DHT22;11564;50.920;11.612;2023-03-14T00:20:00;9.90;99.90
22795;DHT22;11564;50.920;11.612;2023-03-14T00:22:33;9.90;99.90
22795;DHT22;11564;50.920;11.612;2023-03-14T00:24:58;9.90;99.90
22795;DHT22;11564;50.920;11.612;2023-03-14T00:27:24;9.80;99.90
22795;DHT22;11564;50.920;11.612;2023-03-14T00:29:50;9.90;99.90
22795;DHT22;11564;50.920;11.612;2023-03-14T00:32:15;9.90;99.90
22795;DHT22;11564;50.920;11.612;2023-03-14T00:34:41;9.80;99.90
22795;DHT22;11564;50.920;11.612;2023-03-14T00:37:07;9.80;99.90
22795;DHT22;11564;50.920;11.612;2023-03-14T00:39:32;9.70;99.90
22795;DHT22;11564;50.920;11.612;2023-03-14T00:41:58;9.70;99.90
22795;DHT22;11564;50.920;11.612;2023-03-14T00:44:23;9.70;99.90
22795;DHT22;11564;50.920;11.612;2023-03-14T00:46:49;9.70;99.90
22795;DHT22;11564;50.920;11.612;2023-03-14T00:49:15;9.60;99.90
22795;DHT22;11564;50.920;11.612;2023-03-14T00:51:40;9.70;99.90
22795;DHT22;11564;50.920;11.612;2023-03-14T00:54:06;9.80;99.90
22795;DHT22;11564;50.920;11.612;2023-03-14T00:56:31;9.80;99.90
22795;DHT22;11564;50.920;11.612;2023-03-14T00:58:57;9.80;99.90
22795;DHT22;11564;50.920;11.612;2023-03-14T01:01:23;9.70;99.90
22795;DHT22;11564;50.920;11.612;2023-03-14T01:03:53;9.80;99.90
22795;DHT22;11564;50.920;11.612;2023-03-14T01:06:23;9.90;99.90
22795;DHT22;11564;50.920;11.612;2023-03-14T01:08:49;9.90;99.90
22795;DHT22;11564;50.920;11.612;2023-03-14T01:11:32;9.80;99.90
22795;DHT22;11564;50.920;11.612;2023-03-14T01:13:59;9.90;99.90
22795;DHT22;11564;50.920;11.612;2023-03-14T01:16:27;10.00;99.90
22795;DHT22;11564;50.920;11.612;2023-03-14T01:18:54;10.20;99.90
22795;DHT22;11564;50.920;11.612;2023-03-14T01:21:25;10.20;99.90
22795;DHT22;11564;50.920;11.612;2023-03-14T01:23:52;10.30;99.90
22795;DHT22;11564;50.920;11.612;2023-03-14T01:26:20;10.40;99.90
22795;DHT22;11564;50.920;11.612;2023-03-14T01:28:47;10.40;99.90
22795;DHT22;11564;50.920;11.612;2023-03-14T01:31:14;10.50;99.90
22795;DHT22;11564;50.920;11.612;2023-03-14T01:33:40;10.70;99.90
22795;DHT22;11564;50.920;11.612;2023-03-14T01:36:07;10.80;99.90
22795;DHT22;11564;50.920;11.612;2023-03-14T01:38:35;11.00;99.90
22795;DHT22;11564;50.920;11.612;2023-03-14T01:41:01;11.00;99.90
22795;DHT22;11564;50.920;11.612;2023-03-14T01:43:28;10.90;99.90
22795;DHT22;11564;50.920;11.612;2023-03-14T01:48:44;11.00;99.90
22795;DHT22;11564;50.920;11.612;2023-03-14T01:51:18;11.00;99.90
22795;DHT22;11564;50.920;11.612;2023-03-14T01:53:46;11.10;99.90
22795;DHT22;11564;50.920;11.612;2023-03-14T01:56:15;11.10;99.90
22795;DHT22;11564;50.920;11.612;2023-03-14T01:58:44;11.00;99.90
22795;DHT22;11564;50.920;11.612;2023-03-14T02:01:11;10.90;99.90
22795;DHT22;11564;50.920;11.612;2023-03-14T02:03:47;10.90;99.90
22795;DHT22;11564;50.920;11.612;2023-03-14T02:06:14;10.90;99.90
22795;DHT22;11564;50.920;11.612;2023-03-14T02:08:42;11.00;99.90
22795;DHT22;11564;50.920;11.612;2023-03-14T02:11:13;10.90;99.90
22795;DHT22;11564;50.920;11.612;2023-03-14T02:13:39;11.00;99.90
22795;DHT22;11564;50.920;11.612;2023-03-14T02:16:05;10.90;99.90
22795;DHT22;11564;50.920;11.612;2023-03-14T02:18:30;11.00;99.90
22795;DHT22;11564;50.920;11.612;2023-03-14T02:21:00;11.00;99.90
22795;DHT22;11564;50.920;11.612;2023-03-14T02:26:24;11.00;99.90
22795;DHT22;11564;50.920;11.612;2023-03-14T02:28:55;11.00;99.90
22795;DHT22;11564;50.920;11.612;2023-03-14T02:31:22;11.00;99.90
22795;DHT22;11564;50.920;11.612;2023-03-14T02:33:48;11.00;99.90
22795;DHT22;11564;50.920;11.612;2023-03-14T02:36:15;11.00;99.90
22795;DHT22;11564;50.920;11.612;2023-03-14T02:38:51;11.00;99.90
22795;DHT22;11564;50.920;11.612;2023-03-14T02:41:18;11.00;99.90
22795;DHT22;11564;50.920;11.612;2023-03-14T02:43:44;11.00;99.90
22795;DHT22;11564;50.920;11.612;2023-03-14T02:46:18;11.00;99.90
22795;DHT22;11564;50.920;11.612;2023-03-14T02:48:51;11.00;99.90
22795;DHT22;11564;50.920;11.612;2023-03-14T02:51:19;10.90;99.90
22795;DHT22;11564;50.920;11.612;2023-03-14T02:53:44;11.00;99.90
22795;DHT22;11564;50.920;11.612;2023-03-14T02:56:13;11.00;99.90
22795;DHT22;11564;50.920;11.612;2023-03-14T02:58:39;11.00;99.90
22795;DHT22;11564;50.920;11.612;2023-03-14T03:01:05;11.00;99.90
22795;DHT22;11564;50.920;11.612;2023-03-14T03:03:31;11.10;99.90
22795;DHT22;11564;50.920;11.612;2023-03-14T03:05:57;11.00;99.90
22795;DHT22;11564;50.920;11.612;2023-03-14T03:08:25;11.00;99.90
22795;DHT22;11564;50.920;11.612;2023-03-14T03:10:52;11.00;99.90
22795;DHT22;11564;50.920;11.612;2023-03-14T03:13:18;10.90;99.90
22795;DHT22;11564;50.920;11.612;2023-03-14T03:15:44;10.90;99.90
22795;DHT22;11564;50.920;11.612;2023-03-14T03:18:10;11.00;99.90
22795;DHT22;11564;50.920;11.612;2023-03-14T03:20:36;11.00;99.90
22795;DHT22;11564;50.920;11.612;2023-03-14T03:23:02;10.90;99.90
22795;DHT22;11564;50.920;11.612;2023-03-14T03:25:28;10.90;99.90
22795;DHT22;11564;50.920;11.612;2023-03-14T03:27:54;10.80;99.90
22795;DHT22;11564;50.920;11.612;2023-03-14T03:30:20;10.90;99.90
22795;DHT22;11564;50.920;11.612;2023-03-14T03:32:45;10.90;99.90
22795;DHT22;11564;50.920;11.612;2023-03-14T03:35:11;10.90;99.90
22795;DHT22;11564;50.920;11.612;2023-03-14T03:37:38;10.90;99.90
22795;DHT22;11564;50.920;11.612;2023-03-14T03:40:04;10.90;99.90
22795;DHT22;11564;50.920;11.612;2023-03-14T03:42:31;10.90;99.90
22795;DHT22;11564;50.920;11.612;2023-03-14T03:44:57;10.90;99.90
22795;DHT22;11564;50.920;11.612;2023-03-14T03:47:23;10.90;99.90
22795;DHT22;11564;50.920;11.612;2023-03-14T03:49:48;10.90;99.90
22795;DHT22;11564;50.920;11.612;2023-03-14T03:52:14;10.90;99.90
22795;DHT22;11564;50.920;11.612;2023-03-14T03:54:40;10.90;99.90
22795;DHT22;11564;50.920;11.612;2023-03-14T03:57:05;11.00;99.90
22795;DHT22;11564;50.920;11.612;2023-03-14T03:59:31;10.90;99.90
22795;DHT22;11564;50.920;11.612;2023-03-14T04:01:56;10.90;99.90
22795;DHT22;11564;50.920;11.612;2023-03-14T04:04:22;10.80;99.90
22795;DHT22;11564;50.920;11.612;2023-03-14T04:06:48;10.90;99.90
22795;DHT22;11564;50.920;11.612;2023-03-14T04:09:13;10.90;99.90
22795;DHT22;11564;50.920;11.612;2023-03-14T04:11:39;10.90;99.90
22795;DHT22;11564;50.920;11.612;2023-03-14T04:14:05;10.90;99.90
22795;DHT22;11564;50.920;11.612;2023-03-14T04:16:30;10.90;99.90
22795;DHT22;11564;50.920;11.612;2023-03-14T04:19:00;10.80;99.90
22795;DHT22;11564;50.920;11.612;2023-03-14T04:21:26;10.90;99.90
22795;DHT22;11564;50.920;11.612;2023-03-14T04:23:51;10.80;99.90
22795;DHT22;11564;50.920;11.612;2023-03-14T04:26:17;10.70;99.90
22795;DHT22;11564;50.920;11.612;2023-03-14T04:28:43;10.70;99.90
22795;DHT22;11564;50.920;11.612;2023-03-14T04:31:11;10.80;99.90
22795;DHT22;11564;50.920;11.612;2023-03-14T04:33:38;10.70;99.90
22795;DHT22;11564;50.920;11.612;2023-03-14T04:36:05;10.80;99.90
22795;DHT22;11564;50.920;11.612;2023-03-14T04:38:31;10.70;99.90
22795;DHT22;11564;50.920;11.612;2023-03-14T04:40:56;10.80;99.90
22795;DHT22;11564;50.920;11.612;2023-03-14T04:43:22;10.80;99.90
22795;DHT22;11564;50.920;11.612;2023-03-14T04:45:48;10.80;99.90
22795;DHT22;11564;50.920;11.612;2023-03-14T04:48:13;10.80;99.90
22795;DHT22;11564;50.920;11.612;2023-03-14T04:50:39;10.80;99.90
22795;DHT22;11564;50.920;11.612;2023-03-14T04:53:05;10.60;99.90
22795;DHT22;11564;50.920;11.612;2023-03-14T04:55:32;10.60;99.90
22795;DHT22;11564;50.920;11.612;2023-03-14T04:57:58;10.70;99.90
22795;DHT22;11564;50.920;11.612;2023-03-14T05:00:24;10.60;99.90
22795;DHT22;11564;50.920;11.612;2023-03-14T05:02:49;10.60;99.90
22795;DHT22;11564;50.920;11.612;2023-03-14T05:05:15;10.60;99.90
22795;DHT22;11564;50.920;11.612;2023-03-14T05:07:41;10.60;99.90
22795;DHT22;11564;50.920;11.612;2023-03-14T05:10:07;10.50;99.90
22795;DHT22;11564;50.920;11.612;2023-03-14T05:12:33;10.40;99.90
22795;DHT22;11564;50.920;11.612;2023-03-14T05:14:59;10.40;99.90
22795;DHT22;11564;50.920;11.612;2023-03-14T05:17:24;10.30;99.90
22795;DHT22;11564;50.920;11.612;2023-03-14T05:19:51;10.30;99.90
22795;DHT22;11564;50.920;11.612;2023-03-14T05:22:17;10.30;99.90
22795;DHT22;11564;50.920;11.612;2023-03-14T05:24:42;10.40;99.90
22795;DHT22;11564;50.920;11.612;2023-03-14T05:27:08;10.50;99.90
22795;DHT22;11564;50.920;11.612;2023-03-14T05:29:34;10.50;99.90
22795;DHT22;11564;50.920;11.612;2023-03-14T05:31:59;10.50;99.90
22795;DHT22;11564;50.920;11.612;2023-03-14T05:34:25;10.60;99.90
22795;DHT22;11564;50.920;11.612;2023-03-14T05:36:51;10.70;99.90
22795;DHT22;11564;50.920;11.612;2023-03-14T05:39:16;10.70;99.90
22795;DHT22;11564;50.920;11.612;2023-03-14T05:41:42;10.70;99.90
22795;DHT22;11564;50.920;11.612;2023-03-14T05:44:08;10.70;99.90
22795;DHT22;11564;50.920;11.612;2023-03-14T05:46:33;10.70;99.90
22795;DHT22;11564;50.920;11.612;2023-03-14T05:48:59;10.70;99.90
22795;DHT22;11564;50.920;11.612;2023-03-14T05:51:25;10.70;99.90
22795;DHT22;11564;50.920;11.612;2023-03-14T05:53:51;10.60;99.90
22795;DHT22;11564;50.920;11.612;2023-03-14T05:56:16;10.60;99.90
22795;DHT22;11564;50.920;11.612;2023-03-14T05:58:42;10.60;99.90
22795;DHT22;11564;50.920;11.612;2023-03-14T06:01:08;10.60;99.90
22795;DHT22;11564;50.920;11.612;2023-03-14T06:03:34;10.60;99.90
22795;DHT22;11564;50.920;11.612;2023-03-14T06:06:00;10.60;99.90
22795;DHT22;11564;50.920;11.612;2023-03-14T06:08:26;10.60;99.90
22795;DHT22;11564;50.920;11.612;2023-03-14T06:10:52;10.60;99.90
22795;DHT22;11564;50.920;11.612;2023-03-14T06:13:21;10.50;99.90
22795;DHT22;11564;50.920;11.612;2023-03-14T06:15:47;10.50;99.90
22795;DHT22;11564;50.920;11.612;2023-03-14T06:18:12;10.50;99.90
22795;DHT22;11564;50.920;11.612;2023-03-14T06:20:39;10.50;99.90
22795;DHT22;11564;50.920;11.612;2023-03-14T06:23:06;10.50;99.90
22795;DHT22;11564;50.920;11.612;2023-03-14T06:25:33;10.60;99.90
22795;DHT22;11564;50.920;11.612;2023-03-14T06:27:59;10.60;99.90
22795;DHT22;11564;50.920;11.612;2023-03-14T06:30:24;10.70;99.90
22795;DHT22;11564;50.920;11.612;2023-03-14T06:32:50;10.70;99.90
22795;DHT22;11564;50.920;11.612;2023-03-14T06:35:16;10.80;99.90
22795;DHT22;11564;50.920;11.612;2023-03-14T06:37:42;10.80;99.90
22795;DHT22;11564;50.920;11.612;2023-03-14T06:40:10;10.80;99.90
22795;DHT22;11564;50.920;11.612;2023-03-14T06:42:36;10.80;99.90
22795;DHT22;11564;50.920;11.612;2023-03-14T06:45:02;10.90;99.90
22795;DHT22;11564;50.920;11.612;2023-03-14T06:47:28;10.90;99.90
22795;DHT22;11564;50.920;11.612;2023-03-14T06:49:54;10.90;99.90
22795;DHT22;11564;50.920;11.612;2023-03-14T06:52:20;10.90;99.90
22795;DHT22;11564;50.920;11.612;2023-03-14T06:54:45;10.90;99.90
22795;DHT22;11564;50.920;11.612;2023-03-14T06:57:11;10.90;99.90
22795;DHT22;11564;50.920;11.612;2023-03-14T06:59:37;10.90;99.90
22795;DHT22;11564;50.920;11.612;2023-03-14T07:02:02;11.00;99.90
22795;DHT22;11564;50.920;11.612;2023-03-14T07:04:28;11.00;99.90
22795;DHT22;11564;50.920;11.612;2023-03-14T07:06:54;10.90;99.90
22795;DHT22;11564;50.920;11.612;2023-03-14T07:09:20;10.90;99.90
22795;DHT22;11564;50.920;11.612;2023-03-14T07:11:45;10.90;99.90
22795;DHT22;11564;50.920;11.612;2023-03-14T07:14:11;11.00;99.90
22795;DHT22;11564;50.920;11.612;2023-03-14T07:16:37;11.00;99.90
22795;DHT22;11564;50.920;11.612;2023-03-14T07:19:03;10.90;99.90
22795;DHT22;11564;50.920;11.612;2023-03-14T07:21:29;10.90;99.90
22795;DHT22;11564;50.920;11.612;2023-03-14T07:23:54;10.90;99.90
22795;DHT22;11564;50.920;11.612;2023-03-14T07:26:20;11.00;99.90
22795;DHT22;11564;50.920;11.612;2023-03-14T07:28:46;11.00;99.90
22795;DHT22;11564;50.920;11.612;2023-03-14T07:31:12;11.00;99.90
22795;DHT22;11564;50.920;11.612;2023-03-14T07:33:37;11.10;99.90
22795;DHT22;11564;50.920;11.612;2023-03-14T07:36:03;11.10;99.90
22795;DHT22;11564;50.920;11.612;2023-03-14T07:38:29;11.10;99.90
22795;DHT22;11564;50.920;11.612;2023-03-14T07:41:03;11.00;99.90
22795;DHT22;11564;50.920;11.612;2023-03-14T07:43:29;11.00;99.90
22795;DHT22;11564;50.920;11.612;2023-03-14T07:45:54;10.90;99.90
22795;DHT22;11564;50.920;11.612;2023-03-14T07:48:20;11.00;99.90
22795;DHT22;11564;50.920;11.612;2023-03-14T07:50:50;11.00;99.90
22795;DHT22;11564;50.920;11.612;2023-03-14T07:53:15;11.00;99.90
22795;DHT22;11564;50.920;11.612;2023-03-14T07:55:41;11.10;99.90
22795;DHT22;11564;50.920;11.612;2023-03-14T07:58:07;11.20;99.90
22795;DHT22;11564;50.920;11.612;2023-03-14T08:00:32;11.30;99.90
22795;DHT22;11564;50.920;11.612;2023-03-14T08:02:58;11.40;99.90
22795;DHT22;11564;50.920;11.612;2023-03-14T08:05:24;11.50;99.90
22795;DHT22;11564;50.920;11.612;2023-03-14T08:07:49;11.50;99.90
22795;DHT22;11564;50.920;11.612;2023-03-14T08:10:15;11.60;99.90
22795;DHT22;11564;50.920;11.612;2023-03-14T08:12:54;11.70;99.90
22795;DHT22;11564;50.920;11.612;2023-03-14T08:15:21;11.70;99.90
22795;DHT22;11564;50.920;11.612;2023-03-14T08:17:47;11.60;99.90
22795;DHT22;11564;50.920;11.612;2023-03-14T08:20:27;11.60;99.90
22795;DHT22;11564;50.920;11.612;2023-03-14T08:22:59;11.70;99.90
22795;DHT22;11564;50.920;11.612;2023-03-14T08:25:25;11.80;99.90
22795;DHT22;11564;50.920;11.612;2023-03-14T08:27:51;11.80;99.90
22795;DHT22;11564;50.920;11.612;2023-03-14T08:30:18;11.80;99.90
22795;DHT22;11564;50.920;11.612;2023-03-14T08:32:44;11.80;99.90
22795;DHT22;11564;50.920;11.612;2023-03-14T08:35:10;11.80;99.90
22795;DHT22;11564;50.920;11.612;2023-03-14T08:37:36;11.80;99.90
22795;DHT22;11564;50.920;11.612;2023-03-14T08:40:04;11.70;99.90
22795;DHT22;11564;50.920;11.612;2023-03-14T08:42:32;11.90;99.90
22795;DHT22;11564;50.920;11.612;2023-03-14T08:44:58;11.90;99.90
22795;DHT22;11564;50.920;11.612;2023-03-14T08:47:24;11.90;99.90
22795;DHT22;11564;50.920;11.612;2023-03-14T08:49:50;11.90;99.90
22795;DHT22;11564;50.920;11.612;2023-03-14T08:52:15;12.00;99.90
22795;DHT22;11564;50.920;11.612;2023-03-14T08:54:45;12.00;99.90
22795;DHT22;11564;50.920;11.612;2023-03-14T08:57:11;12.00;99.90
22795;DHT22;11564;50.920;11.612;2023-03-14T08:59:36;12.10;99.90
22795;DHT22;11564;50.920;11.612;2023-03-14T09:02:03;12.30;99.90
22795;DHT22;11564;50.920;11.612;2023-03-14T09:04:32;12.50;99.90
22795;DHT22;11564;50.920;11.612;2023-03-14T09:06:58;12.50;99.90
22795;DHT22;11564;50.920;11.612;2023-03-14T09:09:25;12.40;99.90
22795;DHT22;11564;50.920;11.612;2023-03-14T09:11:58;12.60;99.90
22795;DHT22;11564;50.920;11.612;2023-03-14T09:14:24;12.80;99.90
22795;DHT22;11564;50.920;11.612;2023-03-14T09:16:50;12.60;99.90
22795;DHT22;11564;50.920;11.612;2023-03-14T09:19:16;12.50;99.90
22795;DHT22;11564;50.920;11.612;2023-03-14T09:21:42;12.40;99.90
22795;DHT22;11564;50.920;11.612;2023-03-14T09:24:08;12.40;99.90
22795;DHT22;11564;50.920;11.612;2023-03-14T09:26:33;12.50;99.90
22795;DHT22;11564;50.920;11.612;2023-03-14T09:28:59;12.40;99.90
22795;DHT22;11564;50.920;11.612;2023-03-14T09:31:24;12.40;99.90
22795;DHT22;11564;50.920;11.612;2023-03-14T09:33:50;12.20;99.90
22795;DHT22;11564;50.920;11.612;2023-03-14T09:36:16;12.30;99.90
22795;DHT22;11564;50.920;11.612;2023-03-14T09:38:41;12.20;99.90
22795;DHT22;11564;50.920;11.612;2023-03-14T09:41:21;12.30;99.90
22795;DHT22;11564;50.920;11.612;2023-03-14T09:43:51;12.20;99.90
22795;DHT22;11564;50.920;11.612;2023-03-14T09:46:22;12.30;99.90
22795;DHT22;11564;50.920;11.612;2023-03-14T09:48:47;12.40;99.90
22795;DHT22;11564;50.920;11.612;2023-03-14T09:51:19;12.30;99.90
22795;DHT22;11564;50.920;11.612;2023-03-14T09:53:48;12.40;99.90
22795;DHT22;11564;50.920;11.612;2023-03-14T09:56:23;12.40;99.90
22795;DHT22;11564;50.920;11.612;2023-03-14T09:58:54;12.40;99.90
22795;DHT22;11564;50.920;11.612;2023-03-14T10:01:28;12.30;99.90
22795;DHT22;11564;50.920;11.612;2023-03-14T10:03:56;12.20;99.90
22795;DHT22;11564;50.920;11.612;2023-03-14T10:06:25;12.30;99.90
22795;DHT22;11564;50.920;11.612;2023-03-14T10:08:52;12.40;99.90
22795;DHT22;11564;50.920;11.612;2023-03-14T10:11:18;12.50;99.90
22795;DHT22;11564;50.920;11.612;2023-03-14T10:14:08;12.80;99.90
22795;DHT22;11564;50.920;11.612;2023-03-14T10:16:37;12.80;99.90
22795;DHT22;11564;50.920;11.612;2023-03-14T10:19:09;12.90;99.90
22795;DHT22;11564;50.920;11.612;2023-03-14T10:21:41;12.80;99.90
22795;DHT22;11564;50.920;11.612;2023-03-14T10:24:29;13.00;99.90
22795;DHT22;11564;50.920;11.612;2023-03-14T10:26:59;13.10;99.90
22795;DHT22;11564;50.920;11.612;2023-03-14T10:29:28;13.30;99.90
22795;DHT22;11564;50.920;11.612;2023-03-14T10:34:30;13.10;99.90
22795;DHT22;11564;50.920;11.612;2023-03-14T10:36:59;13.00;99.90
22795;DHT22;11564;50.920;11.612;2023-03-14T10:39:47;12.80;99.90
22795;DHT22;11564;50.920;11.612;2023-03-14T10:44:58;12.40;99.90
22795;DHT22;11564;50.920;11.612;2023-03-14T10:47:26;12.40;99.90
22795;DHT22;11564;50.920;11.612;2023-03-14T10:49:54;12.30;99.90
22795;DHT22;11564;50.920;11.612;2023-03-14T10:52:28;12.20;99.90
22795;DHT22;11564;50.920;11.612;2023-03-14T10:54:58;12.10;99.90
22795;DHT22;11564;50.920;11.612;2023-03-14T10:57:25;12.10;99.90
22795;DHT22;11564;50.920;11.612;2023-03-14T10:59:51;12.50;99.90
22795;DHT22;11564;50.920;11.612;2023-03-14T11:05:25;12.60;99.90
22795;DHT22;11564;50.920;11.612;2023-03-14T11:08:02;12.80;99.90
22795;DHT22;11564;50.920;11.612;2023-03-14T11:10:37;13.00;99.90
22795;DHT22;11564;50.920;11.612;2023-03-14T11:13:25;13.10;99.90
22795;DHT22;11564;50.920;11.612;2023-03-14T11:26:54;13.90;99.90
22795;DHT22;11564;50.920;11.612;2023-03-14T11:32:02;13.40;99.90
22795;DHT22;11564;50.920;11.612;2023-03-14T11:34:42;13.50;99.90
22795;DHT22;11564;50.920;11.612;2023-03-14T11:40:13;13.30;99.90
22795;DHT22;11564;50.920;11.612;2023-03-14T11:42:39;13.30;99.90
22795;DHT22;11564;50.920;11.612;2023-03-14T11:45:15;13.30;99.90
22795;DHT22;11564;50.920;11.612;2023-03-14T11:47:42;13.30;99.90
22795;DHT22;11564;50.920;11.612;2023-03-14T11:55:28;13.70;99.90
22795;DHT22;11564;50.920;11.612;2023-03-14T11:58:00;13.70;99.90
22795;DHT22;11564;50.920;11.612;2023-03-14T12:00:27;13.90;99.90
22795;DHT22;11564;50.920;11.612;2023-03-14T12:03:14;14.30;99.90
22795;DHT22;11564;50.920;11.612;2023-03-14T12:13:52;14.90;99.90
22795;DHT22;11564;50.920;11.612;2023-03-14T12:16:37;14.90;99.90
22795;DHT22;11564;50.920;11.612;2023-03-14T12:21:51;14.50;99.90
22795;DHT22;11564;50.920;11.612;2023-03-14T12:24:21;14.30;99.90
22795;DHT22;11564;50.920;11.612;2023-03-14T12:26:56;14.50;99.90
22795;DHT22;11564;50.920;11.612;2023-03-14T12:29:22;14.20;99.90
22795;DHT22;11564;50.920;11.612;2023-03-14T12:32:22;14.30;99.90
22795;DHT22;11564;50.920;11.612;2023-03-14T12:34:49;14.30;99.90
22795;DHT22;11564;50.920;11.612;2023-03-14T12:37:23;15.10;99.90
22795;DHT22;11564;50.920;11.612;2023-03-14T12:45:30;14.00;99.90
22795;DHT22;11564;50.920;11.612;2023-03-14T12:48:04;15.60;99.90
22795;DHT22;11564;50.920;11.612;2023-03-14T12:50:44;17.90;99.90
22795;DHT22;11564;50.920;11.612;2023-03-14T12:56:23;21.00;98.30
22795;DHT22;11564;50.920;11.612;2023-03-14T13:01:17;21.70;95.30
22795;DHT22;11564;50.920;11.612;2023-03-14T13:04:08;20.50;94.20
22795;DHT22;11564;50.920;11.612;2023-03-14T13:06:54;21.40;94.40
22795;DHT22;11564;50.920;11.612;2023-03-14T13:12:17;19.20;94.70
22795;DHT22;11564;50.920;11.612;2023-03-14T13:14:49;17.20;97.00
22795;DHT22;11564;50.920;11.612;2023-03-14T13:17:39;18.50;95.80
22795;DHT22;11564;50.920;11.612;2023-03-14T13:20:16;19.20;94.80
22795;DHT22;11564;50.920;11.612;2023-03-14T13:22:47;17.10;95.90
22795;DHT22;11564;50.920;11.612;2023-03-14T13:25:13;16.40;96.80
22795;DHT22;11564;50.920;11.612;2023-03-14T13:27:40;16.10;98.30
22795;DHT22;11564;50.920;11.612;2023-03-14T13:30:23;16.00;98.10
22795;DHT22;11564;50.920;11.612;2023-03-14T13:32:52;15.30;99.20
22795;DHT22;11564;50.920;11.612;2023-03-14T13:35:21;15.30;99.70
22795;DHT22;11564;50.920;11.612;2023-03-14T13:37:47;15.00;99.90
22795;DHT22;11564;50.920;11.612;2023-03-14T13:40:26;14.90;99.90
22795;DHT22;11564;50.920;11.612;2023-03-14T13:43:04;15.20;99.90
22795;DHT22;11564;50.920;11.612;2023-03-14T13:45:30;14.90;99.90
22795;DHT22;11564;50.920;11.612;2023-03-14T13:47:55;14.60;99.90
22795;DHT22;11564;50.920;11.612;2023-03-14T13:50:21;14.40;99.90
22795;DHT22;11564;50.920;11.612;2023-03-14T13:52:46;14.20;99.90
22795;DHT22;11564;50.920;11.612;2023-03-14T13:55:19;14.00;99.90
22795;DHT22;11564;50.920;11.612;2023-03-14T13:57:51;13.80;99.90
22795;DHT22;11564;50.920;11.612;2023-03-14T14:00:22;13.80;99.90
22795;DHT22;11564;50.920;11.612;2023-03-14T14:02:53;13.60;99.90
22795;DHT22;11564;50.920;11.612;2023-03-14T14:05:20;13.70;99.90
22795;DHT22;11564;50.920;11.612;2023-03-14T14:07:46;13.90;99.90
22795;DHT22;11564;50.920;11.612;2023-03-14T14:10:13;13.90;99.90
22795;DHT22;11564;50.920;11.612;2023-03-14T14:12:43;13.80;99.90
22795;DHT22;11564;50.920;11.612;2023-03-14T14:15:25;13.60;99.90
22795;DHT22;11564;50.920;11.612;2023-03-14T14:17:57;13.10;99.90
22795;DHT22;11564;50.920;11.612;2023-03-14T14:20:26;12.90;99.90
22795;DHT22;11564;50.920;11.612;2023-03-14T14:23:02;12.60;99.90
22795;DHT22;11564;50.920;11.612;2023-03-14T14:25:29;11.80;99.90
22795;DHT22;11564;50.920;11.612;2023-03-14T14:27:56;11.30;99.90
22795;DHT22;11564;50.920;11.612;2023-03-14T14:32:49;9.70;99.90
22795;DHT22;11564;50.920;11.612;2023-03-14T14:35:30;9.70;99.90
22795;DHT22;11564;50.920;11.612;2023-03-14T14:37:56;9.70;99.90
22795;DHT22;11564;50.920;11.612;2023-03-14T14:40:27;9.70;99.90
22795;DHT22;11564;50.920;11.612;2023-03-14T14:42:55;9.30;99.90
22795;DHT22;11564;50.920;11.612;2023-03-14T14:45:22;9.10;99.90
22795;DHT22;11564;50.920;11.612;2023-03-14T14:50:34;9.00;99.90
22795;DHT22;11564;50.920;11.612;2023-03-14T14:55:48;8.90;99.90
22795;DHT22;11564;50.920;11.612;2023-03-14T14:58:32;8.60;99.90
22795;DHT22;11564;50.920;11.612;2023-03-14T15:01:05;7.10;99.90
22795;DHT22;11564;50.920;11.612;2023-03-14T15:03:34;5.90;99.90
22795;DHT22;11564;50.920;11.612;2023-03-14T15:06:01;5.90;99.90
22795;DHT22;11564;50.920;11.612;2023-03-14T15:08:28;5.70;99.90
22795;DHT22;11564;50.920;11.612;2023-03-14T15:10:54;5.60;99.90
22795;DHT22;11564;50.920;11.612;2023-03-14T15:13:21;5.80;99.90
22795;DHT22;11564;50.920;11.612;2023-03-14T15:15:46;5.70;99.90
22795;DHT22;11564;50.920;11.612;2023-03-14T15:18:18;5.80;99.90
22795;DHT22;11564;50.920;11.612;2023-03-14T15:20:45;5.90;99.90
22795;DHT22;11564;50.920;11.612;2023-03-14T15:23:15;5.90;99.90
22795;DHT22;11564;50.920;11.612;2023-03-14T15:25:41;5.90;99.90
22795;DHT22;11564;50.920;11.612;2023-03-14T15:28:19;5.90;99.90
22795;DHT22;11564;50.920;11.612;2023-03-14T15:30:48;5.80;99.90
22795;DHT22;11564;50.920;11.612;2023-03-14T15:33:15;5.70;99.90
22795;DHT22;11564;50.920;11.612;2023-03-14T15:35:42;5.50;99.90
22795;DHT22;11564;50.920;11.612;2023-03-14T15:38:13;5.40;99.90
22795;DHT22;11564;50.920;11.612;2023-03-14T15:40:41;5.30;99.90
22795;DHT22;11564;50.920;11.612;2023-03-14T15:43:07;5.30;99.90
22795;DHT22;11564;50.920;11.612;2023-03-14T15:45:34;5.10;99.90
22795;DHT22;11564;50.920;11.612;2023-03-14T15:48:00;4.80;99.90
22795;DHT22;11564;50.920;11.612;2023-03-14T15:50:26;4.70;99.90
22795;DHT22;11564;50.920;11.612;2023-03-14T15:52:52;4.70;99.90
22795;DHT22;11564;50.920;11.612;2023-03-14T15:55:18;4.50;99.90
22795;DHT22;11564;50.920;11.612;2023-03-14T15:57:44;4.50;99.90
22795;DHT22;11564;50.920;11.612;2023-03-14T16:00:16;4.10;99.90
22795;DHT22;11564;50.920;11.612;2023-03-14T16:02:43;3.80;99.90
22795;DHT22;11564;50.920;11.612;2023-03-14T16:05:11;3.70;99.90
22795;DHT22;11564;50.920;11.612;2023-03-14T16:07:37;3.60;99.90
22795;DHT22;11564;50.920;11.612;2023-03-14T16:10:03;3.50;99.90
22795;DHT22;11564;50.920;11.612;2023-03-14T16:12:30;3.60;99.90
22795;DHT22;11564;50.920;11.612;2023-03-14T16:14:56;3.60;99.90
22795;DHT22;11564;50.920;11.612;2023-03-14T16:17:21;3.50;99.90
22795;DHT22;11564;50.920;11.612;2023-03-14T16:19:47;3.50;99.90
22795;DHT22;11564;50.920;11.612;2023-03-14T16:22:13;3.50;99.90
22795;DHT22;11564;50.920;11.612;2023-03-14T16:24:39;3.60;99.90
22795;DHT22;11564;50.920;11.612;2023-03-14T16:27:04;3.50;99.90
22795;DHT22;11564;50.920;11.612;2023-03-14T16:29:30;3.40;99.90
22795;DHT22;11564;50.920;11.612;2023-03-14T16:31:56;3.40;99.90
22795;DHT22;11564;50.920;11.612;2023-03-14T16:34:21;3.20;99.90